Terminal Aerodrome Forecast
Issued by NWS Brownsville, TX

Home | Current Version | Previous Version | Text Only | Print | Product List | Glossary On
Versions: 1 2 3 4 5 6 7 8 9 10 11 12 13 14 15 16 17 18 19 20 21 22 23 24 25 26 27 28 29 30 31 32 33
965
FTUS44 KBRO 042029 AAC
TAFMFE
TAF AMD
KMFE 042029Z 0420/0518 33013G18KT 3SM -RA BR BKN007 BKN013 OVC021
      TEMPO 0420/0423 1 1/2SM -RA BR
     FM050100 33011G17KT 4SM -RA BR OVC005
     FM051300 30013G19KT P6SM -RA OVC010
     FM051500 28012G18KT P6SM VCSH OVC020
     FM051700 27013KT P6SM BKN030=

USA.gov is the U.S. government's official web portal to all federal, state and local government web resources and services.